sensor_id;sensor_type;location;lat;lon;timestamp;temperature;humidity
52058;DHT22;38063;53.210;6.504;2023-05-10T00:02:09;12.90;99.90
52058;DHT22;38063;53.210;6.504;2023-05-10T00:04:34;12.80;99.90
52058;DHT22;38063;53.210;6.504;2023-05-10T00:07:00;12.80;99.90
52058;DHT22;38063;53.210;6.504;2023-05-10T00:09:26;12.80;99.90
52058;DHT22;38063;53.210;6.504;2023-05-10T00:11:51;12.80;99.90
52058;DHT22;38063;53.210;6.504;2023-05-10T00:14:17;12.70;99.90
52058;DHT22;38063;53.210;6.504;2023-05-10T00:16:42;12.70;99.90
52058;DHT22;38063;53.210;6.504;2023-05-10T00:19:08;12.70;99.90
52058;DHT22;38063;53.210;6.504;2023-05-10T00:21:34;12.60;99.90
52058;DHT22;38063;53.210;6.504;2023-05-10T00:24:00;12.70;99.90
52058;DHT22;38063;53.210;6.504;2023-05-10T00:26:26;12.60;99.90
52058;DHT22;38063;53.210;6.504;2023-05-10T00:28:52;12.60;99.90
52058;DHT22;38063;53.210;6.504;2023-05-10T00:31:18;12.70;99.90
52058;DHT22;38063;53.210;6.504;2023-05-10T00:33:43;12.60;99.90
52058;DHT22;38063;53.210;6.504;2023-05-10T00:36:09;12.60;99.90
52058;DHT22;38063;53.210;6.504;2023-05-10T00:38:35;12.60;99.90
52058;DHT22;38063;53.210;6.504;2023-05-10T00:41:00;12.50;99.90
52058;DHT22;38063;53.210;6.504;2023-05-10T00:43:26;12.50;99.90
52058;DHT22;38063;53.210;6.504;2023-05-10T00:45:52;12.60;99.90
52058;DHT22;38063;53.210;6.504;2023-05-10T00:48:18;12.50;99.90
52058;DHT22;38063;53.210;6.504;2023-05-10T00:50:44;12.50;99.90
52058;DHT22;38063;53.210;6.504;2023-05-10T00:53:10;12.50;99.90
52058;DHT22;38063;53.210;6.504;2023-05-10T00:55:36;12.40;99.90
52058;DHT22;38063;53.210;6.504;2023-05-10T00:58:03;12.50;99.90
52058;DHT22;38063;53.210;6.504;2023-05-10T01:00:28;12.50;99.90
52058;DHT22;38063;53.210;6.504;2023-05-10T01:02:54;12.60;99.90
52058;DHT22;38063;53.210;6.504;2023-05-10T01:05:21;12.40;99.90
52058;DHT22;38063;53.210;6.504;2023-05-10T01:07:46;12.50;99.90
52058;DHT22;38063;53.210;6.504;2023-05-10T01:10:13;12.50;99.90
52058;DHT22;38063;53.210;6.504;2023-05-10T01:12:40;12.40;99.90
52058;DHT22;38063;53.210;6.504;2023-05-10T01:15:08;12.40;99.90
52058;DHT22;38063;53.210;6.504;2023-05-10T01:17:39;12.30;99.90
52058;DHT22;38063;53.210;6.504;2023-05-10T01:20:07;12.60;99.90
52058;DHT22;38063;53.210;6.504;2023-05-10T01:30:57;12.30;99.90
52058;DHT22;38063;53.210;6.504;2023-05-10T01:33:47;12.30;99.90
52058;DHT22;38063;53.210;6.504;2023-05-10T01:36:26;12.20;99.90
52058;DHT22;38063;53.210;6.504;2023-05-10T01:39:01;12.30;99.90
52058;DHT22;38063;53.210;6.504;2023-05-10T01:46:37;12.20;99.90
52058;DHT22;38063;53.210;6.504;2023-05-10T01:49:09;12.20;99.90
52058;DHT22;38063;53.210;6.504;2023-05-10T01:51:47;12.20;99.90
52058;DHT22;38063;53.210;6.504;2023-05-10T01:54:17;12.20;99.90
52058;DHT22;38063;53.210;6.504;2023-05-10T01:56:45;12.30;99.90
52058;DHT22;38063;53.210;6.504;2023-05-10T01:59:16;12.20;99.90
52058;DHT22;38063;53.210;6.504;2023-05-10T02:01:45;12.10;99.90
52058;DHT22;38063;53.210;6.504;2023-05-10T02:04:15;12.10;99.90
52058;DHT22;38063;53.210;6.504;2023-05-10T02:06:42;12.10;99.90
52058;DHT22;38063;53.210;6.504;2023-05-10T02:09:10;12.10;99.90
52058;DHT22;38063;53.210;6.504;2023-05-10T02:11:39;12.10;99.90
52058;DHT22;38063;53.210;6.504;2023-05-10T02:14:07;12.10;99.90
52058;DHT22;38063;53.210;6.504;2023-05-10T02:16:35;12.10;99.90
52058;DHT22;38063;53.210;6.504;2023-05-10T02:19:02;12.10;99.90
52058;DHT22;38063;53.210;6.504;2023-05-10T02:21:29;12.10;99.90
52058;DHT22;38063;53.210;6.504;2023-05-10T02:23:57;12.00;99.90
52058;DHT22;38063;53.210;6.504;2023-05-10T02:26:24;12.20;99.90
52058;DHT22;38063;53.210;6.504;2023-05-10T02:28:52;12.00;99.90
52058;DHT22;38063;53.210;6.504;2023-05-10T02:31:19;12.00;99.90
52058;DHT22;38063;53.210;6.504;2023-05-10T02:33:45;12.00;99.90
52058;DHT22;38063;53.210;6.504;2023-05-10T02:36:12;12.20;99.90
52058;DHT22;38063;53.210;6.504;2023-05-10T02:38:39;12.00;99.90
52058;DHT22;38063;53.210;6.504;2023-05-10T02:41:07;12.00;99.90
52058;DHT22;38063;53.210;6.504;2023-05-10T02:43:35;12.00;99.90
52058;DHT22;38063;53.210;6.504;2023-05-10T02:46:02;12.00;99.90
52058;DHT22;38063;53.210;6.504;2023-05-10T02:48:29;12.00;99.90
52058;DHT22;38063;53.210;6.504;2023-05-10T02:50:56;12.00;99.90
52058;DHT22;38063;53.210;6.504;2023-05-10T02:53:31;12.00;99.90
52058;DHT22;38063;53.210;6.504;2023-05-10T02:56:00;12.00;99.90
52058;DHT22;38063;53.210;6.504;2023-05-10T02:58:26;12.10;99.90
52058;DHT22;38063;53.210;6.504;2023-05-10T03:00:52;12.00;99.90
52058;DHT22;38063;53.210;6.504;2023-05-10T03:03:19;12.00;99.90
52058;DHT22;38063;53.210;6.504;2023-05-10T03:05:45;12.00;99.90
52058;DHT22;38063;53.210;6.504;2023-05-10T03:08:11;12.00;99.90
52058;DHT22;38063;53.210;6.504;2023-05-10T03:10:50;12.00;99.90
52058;DHT22;38063;53.210;6.504;2023-05-10T03:13:31;12.00;99.90
52058;DHT22;38063;53.210;6.504;2023-05-10T03:16:03;12.00;99.90
52058;DHT22;38063;53.210;6.504;2023-05-10T03:18:44;12.00;99.90
52058;DHT22;38063;53.210;6.504;2023-05-10T03:21:13;12.00;99.90
52058;DHT22;38063;53.210;6.504;2023-05-10T03:23:51;12.00;99.90
52058;DHT22;38063;53.210;6.504;2023-05-10T03:26:22;12.00;99.90
52058;DHT22;38063;53.210;6.504;2023-05-10T03:28:49;12.10;99.90
52058;DHT22;38063;53.210;6.504;2023-05-10T03:31:17;11.90;99.90
52058;DHT22;38063;53.210;6.504;2023-05-10T03:33:50;12.00;99.90
52058;DHT22;38063;53.210;6.504;2023-05-10T03:36:16;12.00;99.90
52058;DHT22;38063;53.210;6.504;2023-05-10T03:38:41;12.00;99.90
52058;DHT22;38063;53.210;6.504;2023-05-10T03:41:07;12.00;99.90
52058;DHT22;38063;53.210;6.504;2023-05-10T03:43:33;12.00;99.90
52058;DHT22;38063;53.210;6.504;2023-05-10T03:45:58;12.00;99.90
52058;DHT22;38063;53.210;6.504;2023-05-10T03:48:24;12.00;99.90
52058;DHT22;38063;53.210;6.504;2023-05-10T03:50:49;12.00;99.90
52058;DHT22;38063;53.210;6.504;2023-05-10T03:53:15;12.10;99.90
52058;DHT22;38063;53.210;6.504;2023-05-10T03:55:41;12.00;99.90
52058;DHT22;38063;53.210;6.504;2023-05-10T03:58:10;12.00;99.90
52058;DHT22;38063;53.210;6.504;2023-05-10T04:00:36;11.90;99.90
52058;DHT22;38063;53.210;6.504;2023-05-10T04:03:02;12.00;99.90
52058;DHT22;38063;53.210;6.504;2023-05-10T04:05:28;12.00;99.90
52058;DHT22;38063;53.210;6.504;2023-05-10T04:07:54;12.00;99.90
52058;DHT22;38063;53.210;6.504;2023-05-10T04:10:19;12.00;99.90
52058;DHT22;38063;53.210;6.504;2023-05-10T04:12:46;12.00;99.90
52058;DHT22;38063;53.210;6.504;2023-05-10T04:15:11;12.00;99.90
52058;DHT22;38063;53.210;6.504;2023-05-10T04:17:37;12.00;99.90
52058;DHT22;38063;53.210;6.504;2023-05-10T04:20:03;11.90;99.90
52058;DHT22;38063;53.210;6.504;2023-05-10T04:22:29;11.90;99.90
52058;DHT22;38063;53.210;6.504;2023-05-10T04:24:54;11.90;99.90
52058;DHT22;38063;53.210;6.504;2023-05-10T04:27:20;11.90;99.90
52058;DHT22;38063;53.210;6.504;2023-05-10T04:29:46;11.90;99.90
52058;DHT22;38063;53.210;6.504;2023-05-10T04:32:11;11.80;99.90
52058;DHT22;38063;53.210;6.504;2023-05-10T04:34:37;11.80;99.90
52058;DHT22;38063;53.210;6.504;2023-05-10T04:37:03;11.80;99.90
52058;DHT22;38063;53.210;6.504;2023-05-10T04:39:28;11.80;99.90
52058;DHT22;38063;53.210;6.504;2023-05-10T04:41:54;11.90;99.90
52058;DHT22;38063;53.210;6.504;2023-05-10T04:44:20;11.80;99.90
52058;DHT22;38063;53.210;6.504;2023-05-10T04:46:45;11.80;99.90
52058;DHT22;38063;53.210;6.504;2023-05-10T04:49:11;11.80;99.90
52058;DHT22;38063;53.210;6.504;2023-05-10T04:51:37;11.80;99.90
52058;DHT22;38063;53.210;6.504;2023-05-10T04:54:02;11.80;99.90
52058;DHT22;38063;53.210;6.504;2023-05-10T04:56:28;11.80;99.90
52058;DHT22;38063;53.210;6.504;2023-05-10T04:58:54;11.80;99.90
52058;DHT22;38063;53.210;6.504;2023-05-10T05:01:19;12.00;99.90
52058;DHT22;38063;53.210;6.504;2023-05-10T05:03:45;11.80;99.90
52058;DHT22;38063;53.210;6.504;2023-05-10T05:06:11;11.80;99.90
52058;DHT22;38063;53.210;6.504;2023-05-10T05:08:36;11.80;99.90
52058;DHT22;38063;53.210;6.504;2023-05-10T05:11:02;11.80;99.90
52058;DHT22;38063;53.210;6.504;2023-05-10T05:13:28;11.80;99.90
52058;DHT22;38063;53.210;6.504;2023-05-10T05:15:54;11.80;99.90
52058;DHT22;38063;53.210;6.504;2023-05-10T05:18:20;11.80;99.90
52058;DHT22;38063;53.210;6.504;2023-05-10T05:20:45;11.80;99.90
52058;DHT22;38063;53.210;6.504;2023-05-10T05:23:11;11.90;99.90
52058;DHT22;38063;53.210;6.504;2023-05-10T05:25:37;11.80;99.90
52058;DHT22;38063;53.210;6.504;2023-05-10T05:28:03;11.80;99.90
52058;DHT22;38063;53.210;6.504;2023-05-10T05:30:28;11.80;99.90
52058;DHT22;38063;53.210;6.504;2023-05-10T05:32:54;11.80;99.90
52058;DHT22;38063;53.210;6.504;2023-05-10T05:35:20;11.80;99.90
52058;DHT22;38063;53.210;6.504;2023-05-10T05:37:46;11.80;99.90
52058;DHT22;38063;53.210;6.504;2023-05-10T05:40:14;11.80;99.90
52058;DHT22;38063;53.210;6.504;2023-05-10T05:42:40;11.80;99.90
52058;DHT22;38063;53.210;6.504;2023-05-10T05:45:07;11.80;99.90
52058;DHT22;38063;53.210;6.504;2023-05-10T05:47:34;11.90;99.90
52058;DHT22;38063;53.210;6.504;2023-05-10T05:49:59;11.90;99.90
52058;DHT22;38063;53.210;6.504;2023-05-10T05:52:25;11.90;99.90
52058;DHT22;38063;53.210;6.504;2023-05-10T05:54:51;11.90;99.90
52058;DHT22;38063;53.210;6.504;2023-05-10T05:57:16;11.90;99.90
52058;DHT22;38063;53.210;6.504;2023-05-10T05:59:42;11.90;99.90
52058;DHT22;38063;53.210;6.504;2023-05-10T06:02:10;11.90;99.90
52058;DHT22;38063;53.210;6.504;2023-05-10T06:04:36;12.00;99.90
52058;DHT22;38063;53.210;6.504;2023-05-10T06:07:01;12.00;99.90
52058;DHT22;38063;53.210;6.504;2023-05-10T06:09:27;12.00;99.90
52058;DHT22;38063;53.210;6.504;2023-05-10T06:11:52;12.00;99.90
52058;DHT22;38063;53.210;6.504;2023-05-10T06:14:20;11.90;99.90
52058;DHT22;38063;53.210;6.504;2023-05-10T06:16:46;12.00;99.90
52058;DHT22;38063;53.210;6.504;2023-05-10T06:19:12;12.00;99.90
52058;DHT22;38063;53.210;6.504;2023-05-10T06:21:37;12.00;99.90
52058;DHT22;38063;53.210;6.504;2023-05-10T06:24:03;12.00;99.90
52058;DHT22;38063;53.210;6.504;2023-05-10T06:26:30;11.90;99.90
52058;DHT22;38063;53.210;6.504;2023-05-10T06:28:56;11.90;99.90
52058;DHT22;38063;53.210;6.504;2023-05-10T06:31:22;11.90;99.90
52058;DHT22;38063;53.210;6.504;2023-05-10T06:33:47;12.10;99.90
52058;DHT22;38063;53.210;6.504;2023-05-10T06:36:13;11.90;99.90
52058;DHT22;38063;53.210;6.504;2023-05-10T06:38:39;11.90;99.90
52058;DHT22;38063;53.210;6.504;2023-05-10T06:41:04;11.90;99.90
52058;DHT22;38063;53.210;6.504;2023-05-10T06:43:31;11.90;99.90
52058;DHT22;38063;53.210;6.504;2023-05-10T06:45:57;11.90;99.90
52058;DHT22;38063;53.210;6.504;2023-05-10T06:48:22;11.90;99.90
52058;DHT22;38063;53.210;6.504;2023-05-10T06:50:48;11.80;99.90
52058;DHT22;38063;53.210;6.504;2023-05-10T06:53:14;11.90;99.90
52058;DHT22;38063;53.210;6.504;2023-05-10T06:55:40;11.90;99.90
52058;DHT22;38063;53.210;6.504;2023-05-10T06:58:06;11.80;99.90
52058;DHT22;38063;53.210;6.504;2023-05-10T07:00:32;11.80;99.90
52058;DHT22;38063;53.210;6.504;2023-05-10T07:02:58;11.80;99.90
52058;DHT22;38063;53.210;6.504;2023-05-10T07:05:23;11.80;99.90
52058;DHT22;38063;53.210;6.504;2023-05-10T07:07:49;11.80;99.90
52058;DHT22;38063;53.210;6.504;2023-05-10T07:10:15;12.10;99.90
52058;DHT22;38063;53.210;6.504;2023-05-10T07:12:41;11.90;99.90
52058;DHT22;38063;53.210;6.504;2023-05-10T07:15:07;11.90;99.90
52058;DHT22;38063;53.210;6.504;2023-05-10T07:17:33;11.90;99.90
52058;DHT22;38063;53.210;6.504;2023-05-10T07:19:59;11.90;99.90
52058;DHT22;38063;53.210;6.504;2023-05-10T07:22:25;12.00;99.90
52058;DHT22;38063;53.210;6.504;2023-05-10T07:24:51;11.90;99.90
52058;DHT22;38063;53.210;6.504;2023-05-10T07:27:17;12.00;99.90
52058;DHT22;38063;53.210;6.504;2023-05-10T07:29:42;12.00;99.90
52058;DHT22;38063;53.210;6.504;2023-05-10T07:32:08;12.20;99.90
52058;DHT22;38063;53.210;6.504;2023-05-10T07:34:33;12.00;99.90
52058;DHT22;38063;53.210;6.504;2023-05-10T07:36:59;12.10;99.90
52058;DHT22;38063;53.210;6.504;2023-05-10T07:39:26;12.10;99.90
52058;DHT22;38063;53.210;6.504;2023-05-10T07:41:52;12.20;99.90
52058;DHT22;38063;53.210;6.504;2023-05-10T07:44:18;12.20;99.90
52058;DHT22;38063;53.210;6.504;2023-05-10T07:46:46;12.20;99.90
52058;DHT22;38063;53.210;6.504;2023-05-10T07:49:11;12.20;99.90
52058;DHT22;38063;53.210;6.504;2023-05-10T07:51:37;12.20;99.90
52058;DHT22;38063;53.210;6.504;2023-05-10T07:54:03;12.20;99.90
52058;DHT22;38063;53.210;6.504;2023-05-10T07:56:32;12.20;99.90
52058;DHT22;38063;53.210;6.504;2023-05-10T07:59:02;12.20;99.90
52058;DHT22;38063;53.210;6.504;2023-05-10T08:01:33;12.20;99.90
52058;DHT22;38063;53.210;6.504;2023-05-10T08:04:00;12.20;99.90
52058;DHT22;38063;53.210;6.504;2023-05-10T08:06:26;12.20;99.90
52058;DHT22;38063;53.210;6.504;2023-05-10T08:08:53;12.10;99.90
52058;DHT22;38063;53.210;6.504;2023-05-10T08:11:22;12.10;99.90
52058;DHT22;38063;53.210;6.504;2023-05-10T08:13:49;12.10;99.90
52058;DHT22;38063;53.210;6.504;2023-05-10T08:16:15;12.20;99.90
52058;DHT22;38063;53.210;6.504;2023-05-10T08:18:42;12.10;99.90
52058;DHT22;38063;53.210;6.504;2023-05-10T08:21:08;12.10;99.90
52058;DHT22;38063;53.210;6.504;2023-05-10T08:23:36;12.20;99.90
52058;DHT22;38063;53.210;6.504;2023-05-10T08:26:01;12.10;99.90
52058;DHT22;38063;53.210;6.504;2023-05-10T08:28:27;12.20;99.90
52058;DHT22;38063;53.210;6.504;2023-05-10T08:30:53;12.20;99.90
52058;DHT22;38063;53.210;6.504;2023-05-10T08:33:19;12.30;99.90
52058;DHT22;38063;53.210;6.504;2023-05-10T08:35:45;12.30;99.90
52058;DHT22;38063;53.210;6.504;2023-05-10T08:38:10;12.30;99.90
52058;DHT22;38063;53.210;6.504;2023-05-10T08:40:43;12.30;99.90
52058;DHT22;38063;53.210;6.504;2023-05-10T08:43:11;12.40;99.90
52058;DHT22;38063;53.210;6.504;2023-05-10T08:45:39;12.40;99.90
52058;DHT22;38063;53.210;6.504;2023-05-10T08:48:06;12.30;99.90
52058;DHT22;38063;53.210;6.504;2023-05-10T08:50:36;12.40;99.90
52058;DHT22;38063;53.210;6.504;2023-05-10T08:53:04;12.40;99.90
52058;DHT22;38063;53.210;6.504;2023-05-10T08:55:30;12.40;99.90
52058;DHT22;38063;53.210;6.504;2023-05-10T08:57:58;12.40;99.90
52058;DHT22;38063;53.210;6.504;2023-05-10T09:00:25;12.40;99.90
52058;DHT22;38063;53.210;6.504;2023-05-10T09:02:52;12.40;99.90
52058;DHT22;38063;53.210;6.504;2023-05-10T09:05:17;12.40;99.90
52058;DHT22;38063;53.210;6.504;2023-05-10T09:07:43;12.40;99.90
52058;DHT22;38063;53.210;6.504;2023-05-10T09:10:10;12.40;99.90
52058;DHT22;38063;53.210;6.504;2023-05-10T09:12:37;12.70;99.90
52058;DHT22;38063;53.210;6.504;2023-05-10T09:15:04;12.40;99.90
52058;DHT22;38063;53.210;6.504;2023-05-10T09:17:31;12.50;99.90
52058;DHT22;38063;53.210;6.504;2023-05-10T09:20:00;12.50;99.90
52058;DHT22;38063;53.210;6.504;2023-05-10T09:22:27;12.60;99.90
52058;DHT22;38063;53.210;6.504;2023-05-10T09:27:35;12.70;99.90
52058;DHT22;38063;53.210;6.504;2023-05-10T09:30:02;12.70;99.90
52058;DHT22;38063;53.210;6.504;2023-05-10T09:32:39;12.70;99.90
52058;DHT22;38063;53.210;6.504;2023-05-10T09:35:14;12.70;99.90
52058;DHT22;38063;53.210;6.504;2023-05-10T09:37:42;12.80;99.90
52058;DHT22;38063;53.210;6.504;2023-05-10T09:40:11;12.90;99.90
52058;DHT22;38063;53.210;6.504;2023-05-10T09:42:37;13.00;99.90
52058;DHT22;38063;53.210;6.504;2023-05-10T09:45:07;13.00;99.90
52058;DHT22;38063;53.210;6.504;2023-05-10T09:47:36;13.10;99.90
52058;DHT22;38063;53.210;6.504;2023-05-10T09:50:03;13.20;99.90
52058;DHT22;38063;53.210;6.504;2023-05-10T09:53:10;13.20;99.90
52058;DHT22;38063;53.210;6.504;2023-05-10T09:55:40;13.30;99.90
52058;DHT22;38063;53.210;6.504;2023-05-10T09:58:06;13.40;99.90
52058;DHT22;38063;53.210;6.504;2023-05-10T10:00:40;13.50;99.90
52058;DHT22;38063;53.210;6.504;2023-05-10T10:03:11;13.70;99.90
52058;DHT22;38063;53.210;6.504;2023-05-10T10:05:40;13.80;99.90
52058;DHT22;38063;53.210;6.504;2023-05-10T10:08:08;14.00;99.90
52058;DHT22;38063;53.210;6.504;2023-05-10T10:10:33;14.00;99.90
52058;DHT22;38063;53.210;6.504;2023-05-10T10:13:01;14.10;99.90
52058;DHT22;38063;53.210;6.504;2023-05-10T10:15:27;14.10;99.90
52058;DHT22;38063;53.210;6.504;2023-05-10T10:17:53;14.20;99.90
52058;DHT22;38063;53.210;6.504;2023-05-10T10:20:21;14.30;99.90
52058;DHT22;38063;53.210;6.504;2023-05-10T10:22:48;14.30;99.90
52058;DHT22;38063;53.210;6.504;2023-05-10T10:25:15;14.40;99.90
52058;DHT22;38063;53.210;6.504;2023-05-10T10:30:37;14.30;99.90
52058;DHT22;38063;53.210;6.504;2023-05-10T10:36:04;14.30;99.90
52058;DHT22;38063;53.210;6.504;2023-05-10T10:38:41;14.30;99.90
52058;DHT22;38063;53.210;6.504;2023-05-10T10:41:50;14.30;99.90
52058;DHT22;38063;53.210;6.504;2023-05-10T10:44:22;14.30;99.90
52058;DHT22;38063;53.210;6.504;2023-05-10T10:47:05;14.30;99.90
52058;DHT22;38063;53.210;6.504;2023-05-10T10:52:12;14.50;99.90
52058;DHT22;38063;53.210;6.504;2023-05-10T10:54:38;14.50;99.90
52058;DHT22;38063;53.210;6.504;2023-05-10T10:57:11;14.60;99.90
52058;DHT22;38063;53.210;6.504;2023-05-10T10:59:44;14.60;99.90
52058;DHT22;38063;53.210;6.504;2023-05-10T11:02:31;14.60;99.90
52058;DHT22;38063;53.210;6.504;2023-05-10T11:04:56;14.60;99.90
52058;DHT22;38063;53.210;6.504;2023-05-10T11:07:21;14.70;99.90
52058;DHT22;38063;53.210;6.504;2023-05-10T11:09:48;14.70;99.90
52058;DHT22;38063;53.210;6.504;2023-05-10T11:12:14;14.80;99.90
52058;DHT22;38063;53.210;6.504;2023-05-10T11:14:40;14.90;99.90
52058;DHT22;38063;53.210;6.504;2023-05-10T11:17:25;14.90;99.90
52058;DHT22;38063;53.210;6.504;2023-05-10T11:20:08;14.80;99.90
52058;DHT22;38063;53.210;6.504;2023-05-10T11:22:53;14.80;99.90
52058;DHT22;38063;53.210;6.504;2023-05-10T11:25:23;14.80;99.90
52058;DHT22;38063;53.210;6.504;2023-05-10T11:27:51;14.90;99.90
52058;DHT22;38063;53.210;6.504;2023-05-10T11:30:17;14.80;99.90
52058;DHT22;38063;53.210;6.504;2023-05-10T11:32:43;14.80;99.90
52058;DHT22;38063;53.210;6.504;2023-05-10T11:35:10;14.70;99.90
52058;DHT22;38063;53.210;6.504;2023-05-10T11:37:37;14.70;99.90
52058;DHT22;38063;53.210;6.504;2023-05-10T11:40:07;14.70;99.90
52058;DHT22;38063;53.210;6.504;2023-05-10T11:42:39;14.60;99.90
52058;DHT22;38063;53.210;6.504;2023-05-10T11:45:05;14.70;99.90
52058;DHT22;38063;53.210;6.504;2023-05-10T11:47:31;14.70;99.90
52058;DHT22;38063;53.210;6.504;2023-05-10T11:49:57;14.80;99.90
52058;DHT22;38063;53.210;6.504;2023-05-10T11:52:23;14.70;99.90
52058;DHT22;38063;53.210;6.504;2023-05-10T11:54:53;14.60;99.90
52058;DHT22;38063;53.210;6.504;2023-05-10T11:57:20;14.60;99.90
52058;DHT22;38063;53.210;6.504;2023-05-10T11:59:53;14.60;99.90
52058;DHT22;38063;53.210;6.504;2023-05-10T12:02:19;14.50;99.90
52058;DHT22;38063;53.210;6.504;2023-05-10T12:04:45;14.40;99.90
52058;DHT22;38063;53.210;6.504;2023-05-10T12:07:11;14.40;99.90
52058;DHT22;38063;53.210;6.504;2023-05-10T12:09:36;14.40;99.90
52058;DHT22;38063;53.210;6.504;2023-05-10T12:12:02;14.30;99.90
52058;DHT22;38063;53.210;6.504;2023-05-10T12:14:28;14.30;99.90
52058;DHT22;38063;53.210;6.504;2023-05-10T12:16:58;14.30;99.90
52058;DHT22;38063;53.210;6.504;2023-05-10T12:19:24;14.30;99.90
52058;DHT22;38063;53.210;6.504;2023-05-10T12:21:49;14.30;99.90
52058;DHT22;38063;53.210;6.504;2023-05-10T12:24:15;14.30;99.90
52058;DHT22;38063;53.210;6.504;2023-05-10T12:26:45;14.30;99.90
52058;DHT22;38063;53.210;6.504;2023-05-10T12:29:18;14.30;99.90
52058;DHT22;38063;53.210;6.504;2023-05-10T12:31:57;14.30;99.90
52058;DHT22;38063;53.210;6.504;2023-05-10T12:34:26;14.40;99.90
52058;DHT22;38063;53.210;6.504;2023-05-10T12:36:55;14.40;99.90
52058;DHT22;38063;53.210;6.504;2023-05-10T12:39:21;14.50;99.90
52058;DHT22;38063;53.210;6.504;2023-05-10T12:41:47;14.60;99.90
52058;DHT22;38063;53.210;6.504;2023-05-10T12:44:12;14.60;99.90
52058;DHT22;38063;53.210;6.504;2023-05-10T12:46:38;14.70;99.90
52058;DHT22;38063;53.210;6.504;2023-05-10T12:49:03;14.80;99.90
52058;DHT22;38063;53.210;6.504;2023-05-10T12:51:29;14.90;99.90
52058;DHT22;38063;53.210;6.504;2023-05-10T12:53:56;15.00;99.90
52058;DHT22;38063;53.210;6.504;2023-05-10T12:56:21;15.00;99.90
52058;DHT22;38063;53.210;6.504;2023-05-10T12:58:47;15.10;99.90
52058;DHT22;38063;53.210;6.504;2023-05-10T13:01:14;15.20;99.90
52058;DHT22;38063;53.210;6.504;2023-05-10T13:03:39;15.20;99.90
52058;DHT22;38063;53.210;6.504;2023-05-10T13:06:05;15.10;99.90
52058;DHT22;38063;53.210;6.504;2023-05-10T13:08:32;15.10;99.90
52058;DHT22;38063;53.210;6.504;2023-05-10T13:11:02;15.00;99.90
52058;DHT22;38063;53.210;6.504;2023-05-10T13:13:28;15.00;99.90
52058;DHT22;38063;53.210;6.504;2023-05-10T13:15:54;14.90;99.90
52058;DHT22;38063;53.210;6.504;2023-05-10T13:18:19;14.80;99.90
52058;DHT22;38063;53.210;6.504;2023-05-10T13:20:45;14.80;99.90
52058;DHT22;38063;53.210;6.504;2023-05-10T13:23:11;14.80;99.90
52058;DHT22;38063;53.210;6.504;2023-05-10T13:25:37;14.80;99.90
52058;DHT22;38063;53.210;6.504;2023-05-10T13:28:02;14.80;99.90
52058;DHT22;38063;53.210;6.504;2023-05-10T13:30:28;14.80;99.90
52058;DHT22;38063;53.210;6.504;2023-05-10T13:32:54;14.80;99.90
52058;DHT22;38063;53.210;6.504;2023-05-10T13:35:20;14.80;99.90
52058;DHT22;38063;53.210;6.504;2023-05-10T13:37:46;14.80;99.90
52058;DHT22;38063;53.210;6.504;2023-05-10T13:40:11;14.90;99.90
52058;DHT22;38063;53.210;6.504;2023-05-10T13:42:37;14.90;99.90
52058;DHT22;38063;53.210;6.504;2023-05-10T13:45:03;14.80;99.90
52058;DHT22;38063;53.210;6.504;2023-05-10T13:47:29;14.80;99.90
52058;DHT22;38063;53.210;6.504;2023-05-10T13:49:55;14.80;99.90
52058;DHT22;38063;53.210;6.504;2023-05-10T13:52:21;14.80;99.90
52058;DHT22;38063;53.210;6.504;2023-05-10T13:54:47;14.80;99.90
52058;DHT22;38063;53.210;6.504;2023-05-10T13:57:12;14.80;99.90
52058;DHT22;38063;53.210;6.504;2023-05-10T13:59:39;14.90;99.90
52058;DHT22;38063;53.210;6.504;2023-05-10T14:02:05;14.90;99.90
52058;DHT22;38063;53.210;6.504;2023-05-10T14:04:31;15.00;99.90
52058;DHT22;38063;53.210;6.504;2023-05-10T14:06:57;15.10;99.90
52058;DHT22;38063;53.210;6.504;2023-05-10T14:09:23;15.10;99.90
52058;DHT22;38063;53.210;6.504;2023-05-10T14:11:48;15.10;99.90
52058;DHT22;38063;53.210;6.504;2023-05-10T14:14:14;15.10;99.90
52058;DHT22;38063;53.210;6.504;2023-05-10T14:16:44;15.10;99.90
52058;DHT22;38063;53.210;6.504;2023-05-10T14:19:10;15.10;99.90
52058;DHT22;38063;53.210;6.504;2023-05-10T14:21:36;15.20;99.90
52058;DHT22;38063;53.210;6.504;2023-05-10T14:24:02;15.20;99.90
52058;DHT22;38063;53.210;6.504;2023-05-10T14:26:28;15.30;99.90
52058;DHT22;38063;53.210;6.504;2023-05-10T14:28:53;15.30;99.90
52058;DHT22;38063;53.210;6.504;2023-05-10T14:31:19;15.30;99.90
52058;DHT22;38063;53.210;6.504;2023-05-10T14:33:46;15.40;99.90
52058;DHT22;38063;53.210;6.504;2023-05-10T14:36:12;15.40;99.90
52058;DHT22;38063;53.210;6.504;2023-05-10T14:38:38;15.40;99.90
52058;DHT22;38063;53.210;6.504;2023-05-10T14:41:04;15.50;99.90
52058;DHT22;38063;53.210;6.504;2023-05-10T14:43:30;15.50;99.90
52058;DHT22;38063;53.210;6.504;2023-05-10T14:45:55;15.60;99.90
52058;DHT22;38063;53.210;6.504;2023-05-10T14:48:21;15.60;99.90
52058;DHT22;38063;53.210;6.504;2023-05-10T14:50:47;15.70;99.90
52058;DHT22;38063;53.210;6.504;2023-05-10T14:53:13;15.70;99.90
52058;DHT22;38063;53.210;6.504;2023-05-10T14:55:38;15.70;99.90
52058;DHT22;38063;53.210;6.504;2023-05-10T14:58:04;15.80;99.90
52058;DHT22;38063;53.210;6.504;2023-05-10T15:00:31;15.70;99.90
52058;DHT22;38063;53.210;6.504;2023-05-10T15:02:56;15.70;99.90
52058;DHT22;38063;53.210;6.504;2023-05-10T15:05:23;15.60;99.90
52058;DHT22;38063;53.210;6.504;2023-05-10T15:07:48;15.50;99.90
52058;DHT22;38063;53.210;6.504;2023-05-10T15:10:14;15.50;99.90
52058;DHT22;38063;53.210;6.504;2023-05-10T15:12:40;15.50;99.90
52058;DHT22;38063;53.210;6.504;2023-05-10T15:15:07;15.40;99.90
52058;DHT22;38063;53.210;6.504;2023-05-10T15:17:33;15.50;99.90
52058;DHT22;38063;53.210;6.504;2023-05-10T15:19:59;15.50;99.90
52058;DHT22;38063;53.210;6.504;2023-05-10T15:22:25;15.50;99.90
52058;DHT22;38063;53.210;6.504;2023-05-10T15:24:51;15.50;99.90
52058;DHT22;38063;53.210;6.504;2023-05-10T15:27:16;15.50;99.90
52058;DHT22;38063;53.210;6.504;2023-05-10T15:29:42;15.40;99.90
52058;DHT22;38063;53.210;6.504;2023-05-10T15:32:08;15.40;99.90
52058;DHT22;38063;53.210;6.504;2023-05-10T15:34:33;15.50;99.90
52058;DHT22;38063;53.210;6.504;2023-05-10T15:36:59;15.40;99.90
52058;DHT22;38063;53.210;6.504;2023-05-10T15:39:25;15.30;99.90
52058;DHT22;38063;53.210;6.504;2023-05-10T15:41:51;15.20;99.90
52058;DHT22;38063;53.210;6.504;2023-05-10T15:44:16;15.20;99.90
52058;DHT22;38063;53.210;6.504;2023-05-10T15:46:43;15.00;99.90
52058;DHT22;38063;53.210;6.504;2023-05-10T15:49:09;14.90;99.90
52058;DHT22;38063;53.210;6.504;2023-05-10T15:51:35;14.80;99.90
52058;DHT22;38063;53.210;6.504;2023-05-10T15:54:01;14.70;99.90
52058;DHT22;38063;53.210;6.504;2023-05-10T15:56:28;14.60;99.90